Flight Briefing for CPX323

Departure Arrival
Austin-Bergstrom International Airport (KAUS)
Click to view FAA NOTAMS
Miami International Airport (KMIA)
Click to view FAA NOTAMS
Departure Time Arrival Time
N/A N/A
Aircraft Distance
B767-300BDSF 990nm
Departure METAR Arrival METAR
KAUS 271153Z 16007KT 9SM BKN009 OVC016 23/21 A2995 RMK AO2 SLP130 T02330211 10244 20228 53009 KMIA 271153Z 06007KT 10SM FEW025 27/20 A3007 RMK AO2 SLP182 T02720200 10272 20261 53011
Suggested Route
ILEXY2 ZENZI IAH J86 LEV Q102 BAGGS SSCOT5


View recent IFR Routes data
Notes



Charts and Procedures

Charts for KAUS
No chart available
Charts for KMIA
No chart available

Windy.com Weather Map